Time;durP1;ratioP1;P1;durP2;ratioP2;P2;SDS_P1;SDS_P2;PMS_P1;PMS_P2;Temp;Humidity;BMP_temperature;BMP_pressure;BME280_temperature;BME280_humidity;BME280_pressure;Samples;Min_cycle;Max_cycle;Signal;HPM_P1;HPM_P2
2023/01/24 00:01:30;;;;;;;29.70;12.50;;;;;;;1.73;100.00;98938.31;10282157;28;20512;-49
2023/01/24 00:06:29;;;;;;;19.65;8.35;;;;;;;1.96;100.00;98965.09;10283615;28;20037;-51
2023/01/24 00:11:28;;;;;;;22.48;9.77;;;;;;;2.01;100.00;98957.66;10284153;28;20041;-49
2023/01/24 00:16:27;;;;;;;21.25;9.80;;;;;;;2.08;100.00;98958.06;10287140;28;20109;-49
2023/01/24 00:21:26;;;;;;;26.90;12.43;;;;;;;2.13;100.00;98966.84;10287737;28;20038;-49
2023/01/24 00:26:25;;;;;;;22.40;10.50;;;;;;;1.98;100.00;98962.63;10290575;28;20347;-51
2023/01/24 00:31:24;;;;;;;21.55;9.52;;;;;;;1.70;100.00;98954.38;10291279;28;20085;-49
2023/01/24 00:36:23;;;;;;;;;;;;;;;1.69;100.00;98967.06;10290189;28;20104;-48
2023/01/24 00:41:22;;;;;;;27.58;11.32;;;;;;;1.79;100.00;98964.22;10274777;28;20379;-49
2023/01/24 00:46:21;;;;;;;22.45;9.68;;;;;;;1.68;100.00;98945.72;10290088;28;20040;-49
2023/01/24 00:51:19;;;;;;;32.38;10.75;;;;;;;1.71;100.00;98978.28;10290035;28;20072;-50
2023/01/24 00:56:18;;;;;;;34.15;11.70;;;;;;;1.71;100.00;98980.84;10289833;28;20044;-50
2023/01/24 01:01:23;;;;;;;25.52;13.20;;;;;;;1.77;100.00;98977.75;10289795;28;20046;-48
2023/01/24 01:06:23;;;;;;;22.80;9.15;;;;;;;1.94;100.00;98974.38;10287614;28;20077;-48
2023/01/24 01:11:24;;;;;;;22.88;6.88;;;;;;;1.49;100.00;98979.69;10288109;28;20524;-47
2023/01/24 01:16:25;;;;;;;30.10;9.85;;;;;;;1.40;100.00;98974.06;10289171;28;20080;-46
2023/01/24 01:21:24;;;;;;;25.30;9.75;;;;;;;1.44;100.00;98977.69;10288220;28;20216;-46
2023/01/24 01:26:27;;;;;;;26.02;9.35;;;;;;;1.28;100.00;98987.06;10286506;28;20084;-49
2023/01/24 01:31:26;;;;;;;30.48;9.75;;;;;;;1.28;100.00;98983.63;10288602;28;20517;-48
2023/01/24 01:36:29;;;;;;;43.80;18.27;;;;;;;1.46;100.00;98981.22;10303599;28;20058;-46
2023/01/24 01:41:28;;;;;;;29.30;10.70;;;;;;;1.63;100.00;98980.44;10287586;28;20072;-46
2023/01/24 01:46:33;;;;;;;30.17;9.52;;;;;;;1.42;100.00;98976.72;10284228;28;20048;-49
2023/01/24 01:51:48;;;;;;;36.50;14.18;;;;;;;1.58;100.00;98979.31;10286263;28;20579;-46
2023/01/24 01:56:55;;;;;;;36.90;16.52;;;;;;;1.72;100.00;98978.38;10285853;28;20074;-47
2023/01/24 02:01:57;;;;;;;23.60;9.23;;;;;;;1.43;100.00;98988.69;10277206;28;20099;-46
2023/01/24 02:07:09;;;;;;;23.88;8.00;;;;;;;1.13;100.00;98983.66;10287281;28;20473;-46
2023/01/24 02:12:17;;;;;;;22.90;8.00;;;;;;;1.15;100.00;98987.16;10286595;28;20517;-47
2023/01/24 02:17:19;;;;;;;27.80;8.00;;;;;;;0.93;100.00;98979.09;10286751;28;20053;-49
2023/01/24 02:23:05;;;;;;;27.70;9.35;;;;;;;1.14;100.00;98970.06;10285004;28;20481;-48
2023/01/24 02:28:15;;;;;;;26.42;9.63;;;;;;;0.49;100.00;98894.03;10264499;28;20157;-49
2023/01/24 02:33:18;;;;;;;23.95;7.63;;;;;;;0.67;100.00;98978.50;10318030;28;20105;-47
2023/01/24 02:38:25;;;;;;;26.67;8.75;;;;;;;0.79;100.00;98970.66;10284448;28;20057;-47
2023/01/24 02:43:28;;;;;;;78.85;49.70;;;;;;;0.81;100.00;98979.28;10317666;28;20066;-47
2023/01/24 02:48:27;;;;;;;16.30;6.15;;;;;;;0.78;100.00;98969.78;10300938;28;20147;-48
2023/01/24 02:53:29;;;;;;;27.10;10.40;;;;;;;0.82;100.00;98971.69;10284257;28;20052;-50
2023/01/24 02:58:28;;;;;;;30.90;13.77;;;;;;;0.97;100.00;98961.47;10284219;28;20069;-51
2023/01/24 03:03:27;;;;;;;25.27;7.85;;;;;;;0.89;100.00;98967.81;10284598;28;20037;-48
2023/01/24 03:08:32;;;;;;;24.85;10.23;;;;;;;1.00;100.00;98960.75;10284951;28;20040;-46
2023/01/24 03:34:48;;;;;;;25.35;9.30;;;;;;;1.23;100.00;98972.28;10284699;28;20125;-46
2023/01/24 03:39:53;;;;;;;21.40;7.30;;;;;;;1.19;100.00;98971.22;10284873;28;20496;-47
2023/01/24 03:44:52;;;;;;;25.52;8.68;;;;;;;1.25;100.00;98975.81;10284964;28;20559;-46
2023/01/24 03:55:09;;;;;;;23.88;9.63;;;;;;;0.93;100.00;98946.75;10289987;28;20065;-48
2023/01/24 04:00:09;;;;;;;22.13;8.55;;;;;;;1.05;100.00;98969.56;10292659;28;20053;-46
2023/01/24 04:05:13;;;;;;;15.70;5.65;;;;;;;1.00;100.00;98968.44;10292518;28;20081;-47
2023/01/24 04:10:13;;;;;;;16.75;8.75;;;;;;;1.13;100.00;98972.53;10291903;28;20065;-47
2023/01/24 04:15:21;;;;;;;20.77;9.02;;;;;;;1.17;100.00;98980.47;10291675;28;20492;-48
2023/01/24 04:20:20;;;;;;;17.83;6.80;;;;;;;1.02;100.00;98969.41;10292759;28;20464;-46
2023/01/24 04:25:19;;;;;;;20.23;6.85;;;;;;;-0.38;100.00;98724.91;10291895;28;20492;-46
2023/01/24 04:30:18;;;;;;;;;;;;;;;1.01;100.00;98967.63;10291295;28;20088;-48
2023/01/24 04:35:23;;;;;;;16.63;7.40;;;;;;;0.74;100.00;98970.41;10291063;28;20043;-48
2023/01/24 04:40:22;;;;;;;20.25;8.88;;;;;;;0.78;100.00;98974.88;10288936;28;20124;-47
2023/01/24 04:45:20;;;;;;;16.20;7.13;;;;;;;0.69;100.00;98974.38;10290699;28;20052;-48
2023/01/24 04:50:19;;;;;;;14.70;6.82;;;;;;;0.66;100.00;98984.38;10290448;28;20156;-46
2023/01/24 04:55:18;;;;;;;16.58;6.25;;;;;;;0.61;100.00;98980.69;10290295;28;20132;-46
2023/01/24 05:00:17;;;;;;;;;;;;;;;0.63;100.00;98981.66;10290551;28;20420;-46
2023/01/24 05:05:16;;;;;;;16.63;6.57;;;;;;;0.62;100.00;98982.47;10289630;28;19917;-46
2023/01/24 05:10:15;;;;;;;15.65;7.15;;;;;;;0.67;100.00;98988.72;10290755;28;20120;-47
2023/01/24 05:15:14;;;;;;;20.00;7.80;;;;;;;0.68;100.00;98983.66;10288991;28;20072;-46
2023/01/24 05:20:13;;;;;;;;;;;;;;;0.82;100.00;98992.13;10286975;28;20080;-46
2023/01/24 05:25:14;;;;;;;31.20;15.83;;;;;;;0.87;100.00;98985.63;10289098;28;19920;-46
2023/01/24 05:30:13;;;;;;;21.50;10.98;;;;;;;1.07;100.00;98998.66;10288440;28;20081;-46
2023/01/24 05:35:12;;;;;;;22.27;13.88;;;;;;;1.01;100.00;98993.19;10288654;28;20057;-48
2023/01/24 05:40:11;;;;;;;;;;;;;;;0.87;100.00;99000.97;10287983;28;20033;-46
2023/01/24 05:45:11;;;;;;;16.83;8.40;;;;;;;0.73;100.00;98999.25;10286112;28;19921;-48
2023/01/24 05:50:10;;;;;;;17.80;7.90;;;;;;;0.59;100.00;99018.03;10284432;28;20105;-46
2023/01/24 05:55:09;;;;;;;;;;;;;;;0.52;100.00;99014.22;10287270;28;20065;-46
2023/01/24 06:00:08;;;;;;;12.77;5.40;;;;;;;0.56;100.00;99017.84;10287825;28;19940;-47
2023/01/24 06:05:07;;;;;;;35.08;16.90;;;;;;;0.53;100.00;99022.78;10283211;28;20062;-47
2023/01/24 06:10:06;;;;;;;;;;;;;;;0.52;100.00;99029.56;10287827;28;20065;-46
2023/01/24 06:15:06;;;;;;;82.15;37.75;;;;;;;0.69;100.00;99046.75;9992760;28;20334;-47
2023/01/24 06:20:06;;;;;;;22.98;11.55;;;;;;;0.74;100.00;99057.25;10221588;28;20484;-48
2023/01/24 06:25:12;;;;;;;16.27;7.20;;;;;;;0.25;100.00;99064.56;10287494;28;20069;-46
2023/01/24 06:30:12;;;;;;;18.73;10.35;;;;;;;0.44;100.00;99075.06;10284312;28;20088;-46
2023/01/24 06:35:21;;;;;;;21.20;12.25;;;;;;;0.72;100.00;99086.94;10285751;28;20489;-48
2023/01/24 06:40:22;;;;;;;26.67;11.30;;;;;;;1.04;100.00;99095.63;10286296;28;20211;-46
2023/01/24 06:45:21;;;;;;;21.05;10.23;;;;;;;0.99;100.00;99097.91;10282722;28;20072;-46
2023/01/24 06:50:22;;;;;;;;;;;;;;;1.13;100.00;99105.47;10286420;28;20069;-47
2023/01/24 06:55:20;;;;;;;28.67;11.18;;;;;;;0.86;100.00;99098.84;10285539;28;19968;-46
2023/01/24 07:00:19;;;;;;;;;;;;;;;0.70;99.85;99098.75;10285878;28;20113;-46
2023/01/24 07:05:18;;;;;;;22.80;11.32;;;;;;;0.45;100.00;99107.50;10285592;28;19913;-48
2023/01/24 07:10:17;;;;;;;25.98;12.50;;;;;;;0.53;100.00;99101.97;10286163;28;20117;-47
2023/01/24 07:15:16;;;;;;;;;;;;;;;0.42;100.00;99107.28;10284516;28;20030;-48
2023/01/24 07:20:15;;;;;;;33.97;18.42;;;;;;;0.73;100.00;99114.25;10285162;28;19938;-47
2023/01/24 07:25:18;;;;;;;23.55;12.30;;;;;;;0.65;100.00;99118.03;10286067;28;20069;-46
2023/01/24 07:30:17;;;;;;;17.85;10.18;;;;;;;0.55;100.00;99128.50;10289293;28;20120;-48
2023/01/24 07:35:16;;;;;;;27.30;16.05;;;;;;;0.53;100.00;99125.84;10289580;28;20112;-48
2023/01/24 07:40:15;;;;;;;;;;;;;;;0.58;100.00;99136.31;10290048;28;20524;-48
2023/01/24 07:45:14;;;;;;;17.38;10.48;;;;;;;0.60;100.00;99133.06;10289490;28;20301;-48
2023/01/24 07:50:13;;;;;;;;;;;;;;;0.77;100.00;99138.31;10293793;28;20092;-47
2023/01/24 07:55:12;;;;;;;11.87;5.47;;;;;;;0.83;100.00;99143.81;10292195;28;19913;-47
2023/01/24 08:00:11;;;;;;;;;;;;;;;0.90;100.00;99136.59;10292688;28;20061;-49
2023/01/24 08:05:11;;;;;;;7.35;3.95;;;;;;;1.07;100.00;99142.69;10292279;28;19953;-46
2023/01/24 08:10:10;;;;;;;10.60;4.82;;;;;;;0.92;99.60;99148.56;10289241;28;20068;-48
2023/01/24 08:15:09;;;;;;;12.98;7.88;;;;;;;0.80;99.70;99108.72;10290394;28;20536;-48
2023/01/24 08:20:09;;;;;;;24.17;13.60;;;;;;;0.93;98.53;99143.53;10291638;28;20073;-48
2023/01/24 08:25:08;;;;;;;12.18;7.18;;;;;;;0.90;98.79;99145.94;10291440;28;20072;-47
2023/01/24 08:30:10;;;;;;;17.55;9.15;;;;;;;0.43;99.30;99092.88;10290145;28;20607;-48
2023/01/24 08:35:09;;;;;;;14.90;7.45;;;;;;;0.76;99.54;99160.44;10249413;28;20513;-47
2023/01/24 08:40:08;;;;;;;23.65;13.93;;;;;;;0.71;99.52;99156.72;10251758;28;20465;-48
2023/01/24 08:45:08;;;;;;;19.48;9.93;;;;;;;0.48;99.37;99161.31;10288261;28;20493;-47
2023/01/24 08:50:08;;;;;;;16.60;8.75;;;;;;;0.65;99.07;99162.31;10287879;28;20092;-47
2023/01/24 08:55:07;;;;;;;27.90;13.82;;;;;;;0.80;99.34;99166.59;10284841;28;20120;-47
2023/01/24 09:00:07;;;;;;;19.42;12.25;;;;;;;0.84;98.63;99163.44;10288615;28;20077;-47
2023/01/24 09:05:08;;;;;;;17.20;10.77;;;;;;;0.77;98.96;99172.41;10287127;28;20205;-47
2023/01/24 09:10:08;;;;;;;20.92;12.07;;;;;;;0.72;98.25;99163.59;10287391;28;20512;-47
2023/01/24 09:15:07;;;;;;;18.85;10.93;;;;;;;0.85;99.24;99163.53;10287912;28;20089;-47
2023/01/24 09:20:07;;;;;;;19.83;12.13;;;;;;;0.75;98.49;99171.44;10287517;28;20081;-47
2023/01/24 09:25:07;;;;;;;16.83;10.75;;;;;;;0.54;99.43;99162.47;10286634;28;20065;-48
2023/01/24 09:30:08;;;;;;;14.40;8.98;;;;;;;0.58;99.30;99164.44;10249657;28;1113033;-46
2023/01/24 09:35:07;;;;;;;14.32;8.25;;;;;;;0.55;99.46;99164.25;10285253;28;20584;-48
2023/01/24 09:40:39;;;;;;;22.17;12.75;;;;;;;0.65;99.63;99171.66;10288148;28;20635;-49
2023/01/24 09:45:55;;;;;;;21.63;12.57;;;;;;;0.61;99.97;99159.50;10282862;28;20599;-48
2023/01/24 09:50:59;;;;;;;25.10;16.50;;;;;;;0.82;99.56;99148.00;10287355;28;20057;-47
2023/01/24 09:55:59;;;;;;;14.45;9.65;;;;;;;0.89;98.88;99146.69;10287936;28;20076;-47
2023/01/24 10:01:00;;;;;;;11.82;6.95;;;;;;;0.83;98.55;99142.13;10287848;28;20065;-48
2023/01/24 10:06:08;;;;;;;7.53;4.10;;;;;;;0.79;97.81;99140.16;10287790;28;20061;-48
2023/01/24 10:11:25;;;;;;;13.18;7.13;;;;;;;0.55;97.24;99141.25;10287885;28;20095;-49
2023/01/24 10:16:53;;;;;;;10.48;6.45;;;;;;;0.75;97.62;99133.09;10282010;28;20114;-48
2023/01/24 10:22:07;;;;;;;12.02;7.43;;;;;;;0.57;97.41;99132.91;10270993;28;20668;-48
2023/01/24 10:27:25;;;;;;;13.98;8.00;;;;;;;0.87;97.95;99123.63;10286547;28;20848;-47
2023/01/24 10:32:34;;;;;;;14.20;8.30;;;;;;;1.08;97.28;99103.56;10278627;28;20539;-48
2023/01/24 10:37:38;;;;;;;13.60;8.50;;;;;;;1.16;96.63;99119.34;10286111;28;20084;-48
2023/01/24 10:42:37;;;;;;;12.15;7.70;;;;;;;1.04;96.97;99098.19;10285262;28;20084;-46
2023/01/24 10:47:45;;;;;;;30.92;17.23;;;;;;;1.28;96.36;99108.94;10284958;28;20520;-49
2023/01/24 10:52:48;;;;;;;8.40;4.95;;;;;;;1.34;97.13;99045.31;10279729;28;20125;-48
2023/01/24 10:57:53;;;;;;;8.60;6.15;;;;;;;1.74;95.06;99089.38;10282933;28;20136;-49
2023/01/24 11:02:55;;;;;;;12.05;8.15;;;;;;;2.00;93.48;99087.38;10281828;28;20544;-48
2023/01/24 11:08:00;;;;;;;6.72;3.50;;;;;;;2.21;92.75;99081.59;10279072;28;20129;-50
2023/01/24 11:13:01;;;;;;;5.28;3.38;;;;;;;1.82;91.78;99051.41;10285656;28;20336;-48
2023/01/24 11:18:23;;;;;;;4.90;2.88;;;;;;;1.99;91.67;99080.47;10279047;28;20065;-51
2023/01/24 11:23:24;;;;;;;9.88;6.43;;;;;;;1.90;92.15;99074.84;10277104;28;20490;-51
2023/01/24 11:28:31;;;;;;;4.72;2.83;;;;;;;1.79;92.47;99050.38;10283087;28;20544;-50
2023/01/24 11:33:50;;;;;;;10.30;5.45;;;;;;;1.66;91.66;99059.91;10283534;28;20137;-46
2023/01/24 11:38:51;;;;;;;8.88;5.45;;;;;;;1.52;92.32;99061.69;10275879;28;20129;-49
2023/01/24 11:44:27;;;;;;;6.35;4.07;;;;;;;1.54;92.90;99054.13;10278736;28;20065;-47
2023/01/24 11:49:40;;;;;;;9.13;5.57;;;;;;;1.79;92.79;99055.47;10277932;28;20133;-48
2023/01/24 11:55:04;;;;;;;5.18;3.30;;;;;;;1.87;92.23;99060.19;10260090;28;20077;-47
2023/01/24 12:00:28;;;;;;;8.80;5.40;;;;;;;1.83;93.28;99054.84;10259679;28;20080;-50
2023/01/24 12:05:30;;;;;;;13.80;9.77;;;;;;;1.90;92.20;99059.47;10283325;28;20061;-48
2023/01/24 12:10:37;;;;;;;5.25;3.20;;;;;;;1.53;91.44;99062.59;10284089;28;20481;-47
2023/01/24 12:15:38;;;;;;;11.45;7.30;;;;;;;1.42;92.59;99058.56;10290725;28;20081;-47
2023/01/24 12:21:14;;;;;;;10.93;6.75;;;;;;;1.59;92.59;99057.81;10291474;28;20508;-47
2023/01/24 12:26:27;;;;;;;10.07;6.05;;;;;;;1.77;92.93;99062.19;10288961;28;20084;-47
2023/01/24 12:31:49;;;;;;;8.60;4.82;;;;;;;1.59;91.64;99062.94;10291402;28;20089;-49
2023/01/24 12:36:57;;;;;;;33.65;19.35;;;;;;;1.72;93.18;99059.38;10270193;28;20141;-49
2023/01/24 12:42:04;;;;;;;7.25;4.00;;;;;;;1.83;91.08;99048.03;10270497;28;20068;-47
2023/01/24 12:47:25;;;;;;;19.65;10.57;;;;;;;1.81;90.40;99061.53;10288352;28;20505;-47
2023/01/24 12:52:41;;;;;;;5.57;3.63;;;;;;;1.66;91.26;99053.91;10278648;28;20061;-47
2023/01/24 12:58:13;;;;;;;11.48;5.78;;;;;;;1.43;90.17;99055.19;10279537;28;20073;-49
2023/01/24 13:03:18;;;;;;;5.95;3.65;;;;;;;1.34;89.88;99045.31;10289024;28;20061;-48
2023/01/24 13:08:26;;;;;;;8.80;4.97;;;;;;;1.29;90.68;99046.75;10272638;28;20524;-47
2023/01/24 13:13:32;;;;;;;23.95;18.20;;;;;;;1.45;92.61;99058.72;10284364;28;20485;-47
2023/01/24 13:18:50;;;;;;;5.35;3.60;;;;;;;1.61;92.38;99065.59;10288800;28;20092;-48
2023/01/24 13:24:22;;;;;;;7.47;5.22;;;;;;;1.75;92.96;99073.22;10283311;28;20065;-49
2023/01/24 13:29:51;;;;;;;8.25;5.47;;;;;;;1.52;91.54;99068.50;10287831;28;20077;-47
2023/01/24 13:34:54;;;;;;;8.57;6.40;;;;;;;1.50;92.28;99070.09;10279257;28;20149;-47
2023/01/24 13:40:30;;;;;;;10.82;7.22;;;;;;;1.52;92.24;99071.06;10286454;28;20072;-47
2023/01/24 13:45:30;;;;;;;10.98;6.85;;;;;;;1.59;92.13;99070.59;10283842;28;20078;-47
2023/01/24 13:50:30;;;;;;;6.60;4.07;;;;;;;1.63;92.35;99080.22;10287014;28;20065;-47
2023/01/24 13:55:32;;;;;;;6.57;4.40;;;;;;;1.48;92.56;99081.91;10285705;28;20613;-47
2023/01/24 14:00:31;;;;;;;24.92;14.23;;;;;;;1.27;92.83;99064.59;10285905;28;20073;-49
2023/01/24 14:05:32;;;;;;;13.70;8.30;;;;;;;1.44;93.44;99077.44;10275762;28;20092;-49
2023/01/24 14:10:37;;;;;;;139.98;72.03;;;;;;;1.63;93.79;99080.22;10289720;28;20061;-47
2023/01/24 14:15:39;;;;;;;12.10;7.32;;;;;;;1.71;92.90;99078.94;10288389;28;20080;-47
2023/01/24 14:20:45;;;;;;;16.10;9.73;;;;;;;1.79;93.00;99086.19;10289690;28;20065;-48
2023/01/24 14:25:55;;;;;;;9.77;6.03;;;;;;;1.69;91.58;99074.53;10288586;28;20072;-48
2023/01/24 14:31:30;;;;;;;29.42;19.25;;;;;;;1.69;93.02;99070.34;10289176;28;20077;-49
2023/01/24 14:36:38;;;;;;;17.60;11.65;;;;;;;1.88;93.66;99076.44;10285337;28;20078;-49
2023/01/24 14:41:39;;;;;;;18.65;11.60;;;;;;;1.69;91.25;99078.00;10288762;28;20503;-49
2023/01/24 14:46:38;;;;;;;9.38;6.45;;;;;;;1.48;90.71;99084.47;10285737;28;20430;-49
2023/01/24 14:51:43;;;;;;;12.38;7.85;;;;;;;1.38;91.12;99093.31;10277667;28;20615;-48
2023/01/24 14:56:42;;;;;;;15.00;9.57;;;;;;;1.36;92.58;99078.66;10279778;28;20128;-48
2023/01/24 15:01:41;;;;;;;11.55;7.13;;;;;;;1.23;91.52;99095.88;10273783;28;20069;-48
2023/01/24 15:06:40;;;;;;;;;;;;;;;0.30;92.20;98949.94;10286941;28;20064;-49
2023/01/24 15:11:39;;;;;;;15.07;9.27;;;;;;;1.03;92.15;99098.94;10282144;28;20012;-48
2023/01/24 15:16:54;;;;;;;22.85;16.60;;;;;;;0.88;92.91;99089.59;10279593;28;20053;-48
2023/01/24 15:21:55;;;;;;;14.55;10.10;;;;;;;0.99;93.29;99102.13;10285852;28;20069;-47
2023/01/24 15:26:56;;;;;;;8.98;6.07;;;;;;;0.83;92.89;99101.22;10287159;28;20073;-47
2023/01/24 15:31:55;;;;;;;15.48;10.90;;;;;;;0.94;92.96;99104.41;10285869;28;20085;-49
2023/01/24 15:37:01;;;;;;;13.00;8.65;;;;;;;0.80;92.90;99103.63;10286509;28;20532;-47
2023/01/24 15:52:39;;;;;;;13.30;9.07;;;;;;;0.60;93.57;99101.53;10278695;28;20061;-47
2023/01/24 15:57:38;;;;;;;12.00;7.63;;;;;;;0.82;93.64;99124.13;10292917;28;20041;-48
2023/01/24 16:02:37;;;;;;;;;;;;;;;0.64;93.63;99124.81;10281961;28;20152;-48
2023/01/24 16:07:36;;;;;;;15.48;8.73;;;;;;;0.71;93.93;99120.97;10292143;28;19955;-48
2023/01/24 16:12:35;;;;;;;14.45;9.43;;;;;;;0.69;94.29;99122.53;10285649;28;20823;-49
2023/01/24 16:17:34;;;;;;;10.90;6.97;;;;;;;0.52;93.82;99115.50;10287462;28;20092;-48
2023/01/24 16:22:32;;;;;;;;;;;;;;;0.65;94.56;99128.25;10291531;28;20113;-50
2023/01/24 16:27:32;;;;;;;20.75;14.18;;;;;;;0.53;94.19;99130.06;10292306;28;19963;-49
2023/01/24 16:32:31;;;;;;;23.83;16.88;;;;;;;0.53;94.38;99137.72;10290772;28;20080;-47
2023/01/24 16:37:30;;;;;;;29.17;19.35;;;;;;;0.66;94.97;99124.88;10293073;28;20134;-47
2023/01/24 16:42:29;;;;;;;27.67;18.67;;;;;;;0.87;94.50;99135.50;10289190;28;20038;-48
2023/01/24 16:47:28;;;;;;;26.17;15.57;;;;;;;0.66;94.21;99133.44;10289406;28;20038;-48
2023/01/24 16:52:27;;;;;;;25.02;14.82;;;;;;;0.78;93.73;99146.09;10290377;28;20065;-47
2023/01/24 16:57:26;;;;;;;62.42;31.48;;;;;;;0.84;93.93;99141.31;10291324;28;20038;-48
2023/01/24 17:02:25;;;;;;;26.27;15.73;;;;;;;0.87;93.38;99138.06;10291865;28;20477;-47
2023/01/24 17:07:24;;;;;;;24.30;15.45;;;;;;;0.76;93.79;99122.09;10291044;28;20036;-49
2023/01/24 17:12:23;;;;;;;20.33;13.15;;;;;;;0.87;94.05;99144.06;10291624;28;20030;-48
2023/01/24 17:17:24;;;;;;;41.45;28.15;;;;;;;0.95;94.15;99123.19;10280902;28;20030;-46
2023/01/24 17:22:23;;;;;;;26.52;16.70;;;;;;;0.78;93.51;99110.31;10280851;28;20132;-49
2023/01/24 17:27:22;;;;;;;19.50;10.65;;;;;;;0.72;93.96;99143.16;10282482;28;20029;-46
2023/01/24 17:32:21;;;;;;;22.80;13.10;;;;;;;0.76;94.13;99134.88;10282142;28;20454;-46
2023/01/24 17:37:20;;;;;;;23.67;13.98;;;;;;;0.85;94.56;99154.97;10285172;28;20488;-48
2023/01/24 17:42:19;;;;;;;21.65;12.02;;;;;;;0.77;94.44;99151.97;10283163;28;20412;-49
2023/01/24 17:47:18;;;;;;;32.85;18.90;;;;;;;0.88;94.33;99145.81;10280601;28;20029;-47
2023/01/24 17:52:17;;;;;;;17.13;10.20;;;;;;;0.95;94.25;99146.19;10287799;28;20564;-49
2023/01/24 17:57:16;;;;;;;33.38;22.52;;;;;;;0.98;93.87;99143.81;10269369;28;20450;-49
2023/01/24 18:02:15;;;;;;;18.38;10.80;;;;;;;0.75;94.39;99122.88;10286355;28;20042;-46
2023/01/24 18:07:14;;;;;;;;;;;;;;;0.83;93.98;99142.13;10285210;28;20038;-46
2023/01/24 18:12:12;;;;;;;18.65;10.88;;;;;;;1.01;94.33;99141.44;10286646;28;20363;-47
2023/01/24 18:17:11;;;;;;;19.33;10.43;;;;;;;0.63;94.12;99107.69;10285573;28;20029;-46
2023/01/24 18:22:10;;;;;;;19.73;9.65;;;;;;;0.78;94.06;99117.97;10286469;28;20041;-46
2023/01/24 18:27:09;;;;;;;23.25;14.13;;;;;;;0.90;94.12;99141.69;10286119;28;20097;-47
2023/01/24 18:32:08;;;;;;;18.13;10.20;;;;;;;0.78;94.01;99138.41;10277041;28;20041;-48
2023/01/24 18:37:07;;;;;;;;;;;;;;;0.78;94.14;99135.88;10252641;28;20485;-48
2023/01/24 18:42:07;;;;;;;26.75;16.52;;;;;;;0.67;94.22;99134.31;10280310;28;19917;-47
2023/01/24 18:47:06;;;;;;;21.88;10.60;;;;;;;0.38;95.12;99136.00;10283509;28;20076;-46
2023/01/24 18:52:05;;;;;;;21.98;11.27;;;;;;;0.43;95.40;99128.63;10282905;28;20026;-47
2023/01/24 18:57:04;;;;;;;25.88;14.77;;;;;;;0.61;95.38;99139.94;10285365;28;20482;-48
2023/01/24 19:02:03;;;;;;;23.42;12.45;;;;;;;0.53;95.12;99142.84;10283761;28;20065;-49
2023/01/24 19:07:03;;;;;;;29.73;17.23;;;;;;;0.56;95.56;99148.13;10285644;28;20069;-48
2023/01/24 19:12:02;;;;;;;28.50;15.18;;;;;;;0.50;95.34;99150.28;10280658;28;20073;-46
2023/01/24 19:17:01;;;;;;;28.85;16.17;;;;;;;0.61;95.02;99146.72;10281707;28;20118;-47
2023/01/24 19:22:03;;;;;;;;;;;;;;;0.76;94.54;99155.31;10279430;28;20465;-47
2023/01/24 19:27:02;;;;;;;21.45;10.63;;;;;;;0.57;94.41;99154.97;10292614;28;19945;-47
2023/01/24 19:32:01;;;;;;;28.00;15.05;;;;;;;0.25;95.34;99156.47;10276179;28;20081;-48
2023/01/24 19:37:00;;;;;;;29.95;18.08;;;;;;;0.22;96.00;99153.72;10287864;28;20041;-48
2023/01/24 19:42:00;;;;;;;;;;;;;;;0.17;96.09;99152.53;10292938;28;20052;-46
2023/01/24 19:46:59;;;;;;;32.53;19.20;;;;;;;0.41;96.14;99160.84;10292116;28;19956;-47
2023/01/24 19:51:58;;;;;;;;;;;;;;;0.46;95.34;99159.44;10292270;28;20049;-48
2023/01/24 19:56:57;;;;;;;29.30;14.95;;;;;;;0.51;95.18;99162.28;10291452;28;20328;-48
2023/01/24 20:01:56;;;;;;;29.80;16.23;;;;;;;0.62;94.92;99161.28;10290185;28;20048;-47
2023/01/24 20:06:55;;;;;;;32.97;17.83;;;;;;;0.42;95.24;99160.91;10290425;28;20062;-48
2023/01/24 20:11:54;;;;;;;31.65;15.75;;;;;;;0.37;95.08;99161.44;10288315;28;20045;-48
2023/01/24 20:16:53;;;;;;;30.38;16.48;;;;;;;0.43;94.86;99172.03;10287202;28;20478;-49
2023/01/24 20:21:52;;;;;;;;;;;;;;;0.40;95.00;99165.03;10290218;28;20505;-46
2023/01/24 20:26:52;;;;;;;36.87;18.50;;;;;;;0.21;95.17;99169.81;10220165;28;19951;-48
2023/01/24 20:31:51;;;;;;;49.08;24.25;;;;;;;0.10;95.93;99178.47;10293636;28;20307;-46
2023/01/24 20:36:51;;;;;;;30.55;15.98;;;;;;;0.18;94.92;99178.16;10264072;28;20049;-46
2023/01/24 20:41:50;;;;;;;26.67;13.45;;;;;;;0.38;95.03;99169.22;10290246;28;20081;-49
2023/01/24 20:46:49;;;;;;;;;;;;;;;0.24;94.97;99170.91;10303825;28;20070;-47
2023/01/24 20:51:48;;;;;;;40.67;21.03;;;;;;;0.32;95.34;99156.03;10290459;28;19948;-46
2023/01/24 20:56:48;;;;;;;;;;;;;;;0.47;93.73;99174.88;10289808;28;20036;-48
2023/01/24 21:01:47;;;;;;;;;;;;;;;0.50;94.39;99180.94;10286775;28;20012;-48
2023/01/24 21:06:46;;;;;;;35.42;18.33;;;;;;;0.56;93.26;99176.22;10289597;28;19920;-47
2023/01/24 21:11:46;;;;;;;;;;;;;;;0.51;93.54;99175.06;10289400;28;20072;-48
2023/01/24 21:16:45;;;;;;;34.83;17.38;;;;;;;0.10;93.95;99173.34;10288140;28;20020;-48
2023/01/24 21:21:46;;;;;;;27.92;14.98;;;;;;;0.35;93.97;99189.41;10288649;28;20472;-48
2023/01/24 21:26:45;;;;;;;31.45;15.23;;;;;;;0.02;93.91;99143.13;10288172;28;20070;-47
2023/01/24 21:31:44;;;;;;;34.28;19.02;;;;;;;0.26;94.05;99179.53;10288191;28;20077;-46
2023/01/24 21:36:44;;;;;;;25.42;13.40;;;;;;;0.01;94.05;99166.03;10288435;28;20046;-46
2023/01/24 21:41:55;;;;;;;22.95;10.38;;;;;;;-0.47;94.20;99114.50;10284979;28;20073;-47
2023/01/24 21:46:54;;;;;;;31.98;14.93;;;;;;;-0.14;94.64;99170.13;10287348;28;20104;-47
2023/01/24 21:51:57;;;;;;;32.60;11.90;;;;;;;-0.34;95.04;99166.34;10286496;28;20597;-46
2023/01/24 22:02:20;;;;;;;21.73;10.55;;;;;;;-0.28;94.84;99159.06;10287100;28;20076;-47
2023/01/24 22:07:21;;;;;;;29.98;14.75;;;;;;;-0.05;94.69;99150.31;10287540;28;20080;-46
2023/01/24 22:12:20;;;;;;;29.13;15.23;;;;;;;-0.21;93.90;99122.94;10286871;28;20132;-48
2023/01/24 22:17:21;;;;;;;;;;;;;;;0.25;94.34;99146.25;10287284;28;20077;-46
2023/01/24 22:22:33;;;;;;;26.25;14.05;;;;;;;0.28;93.31;99151.53;10283587;28;19957;-49
2023/01/24 22:27:32;;;;;;;26.42;12.93;;;;;;;0.34;92.76;99140.84;10283529;28;20383;-48
2023/01/24 22:32:31;;;;;;;528.20;218.90;;;;;;;0.11;92.81;99103.66;10287164;28;20085;-46
2023/01/24 22:37:37;;;;;;;;;;;;;;;0.50;93.52;99129.84;10286527;28;20077;-47
2023/01/24 22:42:36;;;;;;;179.88;78.65;;;;;;;0.65;92.76;99130.78;10286324;28;19995;-48
2023/01/24 22:47:35;;;;;;;74.15;38.17;;;;;;;0.74;92.50;99126.25;10285409;28;20061;-49
2023/01/24 22:52:34;;;;;;;;;;;;;;;0.33;91.46;99127.16;10286490;28;20084;-48
2023/01/24 22:57:33;;;;;;;18.52;9.00;;;;;;;0.08;92.08;99113.66;10285209;28;19928;-47
2023/01/24 23:02:32;;;;;;;;;;;;;;;0.12;92.05;99103.75;10285025;28;20044;-46
2023/01/24 23:07:31;;;;;;;36.67;20.23;;;;;;;0.16;91.54;99113.38;10280939;28;20015;-48
2023/01/24 23:17:50;;;;;;;36.58;18.80;;;;;;;0.51;92.08;99108.66;10287261;28;20073;-47
2023/01/24 23:22:48;;;;;;;31.23;16.73;;;;;;;0.32;91.36;99076.91;10286630;28;20080;-48
2023/01/24 23:27:47;;;;;;;22.77;11.82;;;;;;;0.47;90.64;99108.47;10285713;28;20104;-49
2023/01/24 23:32:50;;;;;;;;;;;;;;;0.50;91.79;99104.31;10285588;28;20057;-46
2023/01/24 23:37:49;;;;;;;35.65;17.17;;;;;;;0.23;91.06;99104.41;10284875;28;19953;-49
2023/01/24 23:42:48;;;;;;;25.73;11.20;;;;;;;0.24;91.80;99106.16;10285617;28;20026;-48
2023/01/24 23:47:47;;;;;;;26.50;12.10;;;;;;;0.20;91.89;99089.81;10285991;28;20038;-47
2023/01/24 23:52:46;;;;;;;25.17;13.38;;;;;;;-0.09;92.32;99104.97;10283601;28;20420;-46
2023/01/24 23:57:45;;;;;;;;;;;;;;;-0.06;92.88;99094.97;10286640;28;20041;-46
